Terminal Aerodrome Forecast
Issued by NWS

Home | Current Version | Previous Version | Text Only | Print | Product List | Glossary On
Versions: 1 2 3 4 5 6 7 8 9 10 11 12
000
FTUS43 KFGF 301129
TAFBJI
TAF
KBJI 301129Z 3012/3112 17005KT P6SM SCT060
     FM301500 19006KT P6SM VCSH BKN090
     FM301900 19006KT P6SM SCT130
     FM302300 16006KT P6SM SCT200=

USA.gov is the U.S. government's official web portal to all federal, state and local government web resources and services.